createdAt,value
2022-12-20T00:02:47.239Z,100251.01
2022-12-20T00:07:50.762Z,100250.56
2022-12-20T00:12:54.177Z,100245.07
2022-12-20T00:17:58.681Z,100238.05
2022-12-20T00:23:02.140Z,100232.31
2022-12-20T00:28:05.749Z,100221.94
2022-12-20T00:33:09.161Z,100213.95
2022-12-20T00:38:12.583Z,100209.45
2022-12-20T00:43:15.988Z,100204.19
2022-12-20T00:48:19.399Z,100195.00
2022-12-20T00:53:26.306Z,100187.82
2022-12-20T00:58:30.429Z,100193.42
2022-12-20T01:03:34.681Z,100195.75
2022-12-20T01:08:38.073Z,100186.62
2022-12-20T01:13:45.587Z,100187.57
2022-12-20T01:18:50.121Z,100187.83
2022-12-20T01:23:54.666Z,100186.36
2022-12-20T01:29:00.423Z,100184.08
2022-12-20T01:34:04.045Z,100187.74
2022-12-20T01:39:11.988Z,100184.09
2022-12-20T01:44:18.448Z,100177.85
2022-12-20T01:49:43.158Z,100159.29
2022-12-20T01:54:52.113Z,100152.16
2022-12-20T01:59:57.348Z,100138.71
2022-12-20T02:05:01.180Z,100130.00
2022-12-20T02:10:05.897Z,100122.17
2022-12-20T02:15:27.667Z,100115.84
2022-12-20T02:20:49.930Z,100122.16
2022-12-20T02:26:27.637Z,100135.23
2022-12-20T02:31:39.503Z,100151.05
2022-12-20T02:36:42.966Z,100124.01
2022-12-20T02:42:01.738Z,100104.50
2022-12-20T02:47:11.193Z,100103.65
2022-12-20T02:52:15.734Z,100123.86
2022-12-20T02:57:34.912Z,100123.24
2022-12-20T03:02:58.001Z,100111.81
2022-12-20T03:08:01.607Z,100088.11
2022-12-20T03:13:05.431Z,100087.38
2022-12-20T03:18:09.156Z,100066.89
2022-12-20T03:23:13.180Z,100059.30
2022-12-20T03:28:17.102Z,100080.73
2022-12-20T03:33:20.524Z,100079.97
2022-12-20T03:38:23.927Z,100098.30
2022-12-20T03:43:27.347Z,100105.45
2022-12-20T03:48:30.751Z,100094.19
2022-12-20T03:53:34.603Z,100099.40
2022-12-20T03:58:37.892Z,100092.77
2022-12-20T04:03:41.313Z,100089.37
2022-12-20T04:08:45.228Z,100090.95
2022-12-20T04:13:53.560Z,100073.09
2022-12-20T04:18:57.589Z,100081.71
2022-12-20T04:24:03.402Z,100094.09
2022-12-20T04:29:07.274Z,100082.18
2022-12-20T04:34:10.586Z,100099.41
2022-12-20T04:39:14.012Z,100092.19
2022-12-20T04:44:17.524Z,100080.98
2022-12-20T04:49:21.133Z,100080.42
2022-12-20T04:54:27.228Z,100086.14
2022-12-20T04:59:30.528Z,100079.60
2022-12-20T05:04:37.585Z,100069.65
2022-12-20T05:09:54.342Z,100057.83
2022-12-20T05:14:58.895Z,100049.66
2022-12-20T05:20:02.407Z,100050.19
2022-12-20T05:25:26.016Z,100069.52
2022-12-20T05:30:31.441Z,100065.42
2022-12-20T05:35:35.337Z,100074.29
2022-12-20T05:40:40.644Z,100064.17
2022-12-20T05:45:53.779Z,100053.98
2022-12-20T05:50:57.182Z,100058.70
2022-12-20T05:56:01.719Z,100059.74
2022-12-20T06:01:06.358Z,100056.26
2022-12-20T06:06:14.592Z,100056.34
2022-12-20T06:11:18.721Z,100064.52
2022-12-20T06:16:23.572Z,100065.27
2022-12-20T06:21:28.733Z,100063.95
2022-12-20T06:26:36.574Z,100071.70
2022-12-20T06:31:41.124Z,100073.65
2022-12-20T06:43:18.322Z,100077.60
2022-12-20T06:48:21.841Z,100069.09
2022-12-20T06:53:34.308Z,100065.69
2022-12-20T06:58:37.793Z,100073.34
2022-12-20T07:03:41.233Z,100082.39
2022-12-20T07:08:44.911Z,100085.22
2022-12-20T07:13:48.321Z,100088.69
2022-12-20T07:18:52.796Z,100096.34
2022-12-20T07:23:56.274Z,100100.08
2022-12-20T07:28:59.790Z,100105.49
2022-12-20T07:34:03.104Z,100107.38
2022-12-20T07:39:06.730Z,100105.48
2022-12-20T07:44:10.129Z,100103.09
2022-12-20T07:49:14.161Z,100096.23
2022-12-20T07:54:27.718Z,100098.00
2022-12-20T07:59:39.224Z,100113.73
2022-12-20T08:04:43.379Z,100113.95
2022-12-20T08:09:47.390Z,100111.57
2022-12-20T08:14:56.425Z,100103.60
2022-12-20T08:20:00.951Z,100109.43
2022-12-20T08:25:05.083Z,100112.86
2022-12-20T08:30:10.823Z,100105.33
2022-12-20T08:35:14.286Z,100091.15
2022-12-20T08:40:17.686Z,100085.27
2022-12-20T08:45:21.197Z,100094.06
2022-12-20T08:50:24.813Z,100088.69
2022-12-20T08:55:29.721Z,100087.09
2022-12-20T09:00:34.193Z,100084.02
2022-12-20T09:05:43.856Z,100088.77
2022-12-20T09:10:47.678Z,100099.69
2022-12-20T09:15:51.168Z,100086.48
2022-12-20T09:20:54.815Z,100089.73
2022-12-20T09:26:06.802Z,100090.27
2022-12-20T09:31:17.350Z,100078.88
2022-12-20T09:36:22.559Z,100097.48
2022-12-20T09:41:29.458Z,100098.44
2022-12-20T09:46:33.603Z,100090.35
2022-12-20T09:51:55.547Z,100099.60
2022-12-20T09:57:12.262Z,100098.52
2022-12-20T10:03:09.889Z,100101.17
2022-12-20T10:07:54.325Z,100088.07
2022-12-20T10:13:11.037Z,100063.41
2022-12-20T10:18:52.134Z,100054.43
2022-12-20T10:24:03.363Z,100026.98
2022-12-20T10:29:06.865Z,100028.08
2022-12-20T10:34:10.367Z,100046.11
2022-12-20T10:39:13.870Z,100037.70
2022-12-20T10:44:31.115Z,100034.84
2022-12-20T10:49:36.551Z,100043.14
2022-12-20T10:54:41.111Z,100039.19
2022-12-20T10:59:59.170Z,100038.91
2022-12-20T11:05:18.977Z,100040.31
2022-12-20T11:10:25.794Z,100047.59
2022-12-20T11:15:34.184Z,100045.27
2022-12-20T11:20:54.340Z,100036.24
2022-12-20T11:26:32.317Z,100018.74
2022-12-20T11:31:54.518Z,100019.58
2022-12-20T11:37:17.339Z,100016.20
2022-12-20T11:42:48.297Z,100020.19
2022-12-20T11:48:18.752Z,100008.85
2022-12-20T11:53:40.899Z,100008.86
2022-12-20T11:58:56.805Z,100007.83
2022-12-20T12:04:15.579Z,100010.17
2022-12-20T12:09:39.067Z,100003.83
2022-12-20T12:15:16.230Z,99994.39
2022-12-20T12:20:29.609Z,100005.05
2022-12-20T12:25:33.124Z,100005.13
2022-12-20T12:30:44.107Z,100008.58
2022-12-20T12:36:02.691Z,99995.57
2022-12-20T12:41:19.715Z,100004.94
2022-12-20T12:46:30.046Z,99999.04
2022-12-20T12:51:37.814Z,99990.87
2022-12-20T12:56:46.632Z,99989.41
2022-12-20T13:02:09.082Z,99985.33
2022-12-20T13:07:37.714Z,99986.42
2022-12-20T13:12:41.327Z,99997.26
2022-12-20T13:17:48.510Z,100010.59
2022-12-20T13:23:13.289Z,100017.41
2022-12-20T13:28:17.093Z,100020.31
2022-12-20T13:33:24.612Z,100006.84
2022-12-20T13:38:43.655Z,99999.48
2022-12-20T13:43:48.608Z,99997.84
2022-12-20T13:48:56.501Z,99993.70
2022-12-20T13:54:03.885Z,99991.87
2022-12-20T13:59:33.676Z,99996.95
2022-12-20T14:05:03.327Z,99995.66
2022-12-20T14:10:25.650Z,99987.52
2022-12-20T14:15:35.308Z,99981.30
2022-12-20T14:20:38.927Z,99971.04
2022-12-20T14:25:55.941Z,99973.45
2022-12-20T14:31:02.178Z,99970.40
2022-12-20T14:36:17.743Z,99965.73
2022-12-20T14:41:36.499Z,99962.27
2022-12-20T14:46:46.885Z,99961.59
2022-12-20T14:52:05.148Z,99956.46
2022-12-20T14:57:20.129Z,99957.88
2022-12-20T15:02:56.179Z,99954.48
2022-12-20T15:08:20.105Z,99956.09
2022-12-20T15:13:29.970Z,99963.44
2022-12-20T15:18:33.695Z,99958.88
2022-12-20T15:23:38.320Z,99937.25
2022-12-20T15:28:42.349Z,99931.45
2022-12-20T15:33:47.387Z,99932.02
2022-12-20T15:39:12.233Z,99930.80
2022-12-20T15:44:24.543Z,99933.10
2022-12-20T15:49:31.696Z,99931.33
2022-12-20T15:54:37.412Z,99933.82
2022-12-20T15:59:59.642Z,99940.84
2022-12-20T16:05:05.940Z,99947.42
2022-12-20T16:10:15.178Z,99955.89
2022-12-20T16:15:23.654Z,99956.52
2022-12-20T16:20:27.782Z,99969.38
2022-12-20T16:25:37.104Z,99962.08
2022-12-20T16:30:41.564Z,99944.02
2022-12-20T16:35:45.055Z,99930.71
2022-12-20T16:40:53.228Z,99924.34
2022-12-20T16:45:57.718Z,99932.45
2022-12-20T16:51:01.338Z,99923.00
2022-12-20T16:56:05.185Z,99916.77
2022-12-20T17:01:23.524Z,99920.91
2022-12-20T17:06:27.348Z,99919.87
2022-12-20T17:11:32.528Z,99924.48
2022-12-20T17:16:36.080Z,99935.07
2022-12-20T17:27:06.802Z,99941.30
2022-12-20T17:32:28.450Z,99939.75
2022-12-20T17:37:31.962Z,99936.41
2022-12-20T17:42:35.476Z,99931.02
2022-12-20T17:47:38.989Z,99934.27
2022-12-20T17:52:42.710Z,99932.59
2022-12-20T17:57:46.737Z,99930.39
2022-12-20T18:02:50.545Z,99927.10
2022-12-20T18:07:55.862Z,99915.09
2022-12-20T18:12:59.229Z,99910.52
2022-12-20T18:18:02.743Z,99902.64
2022-12-20T18:23:06.264Z,99891.56
2022-12-20T18:28:10.798Z,99894.42
2022-12-20T18:33:14.316Z,99898.20
2022-12-20T18:38:18.238Z,99904.81
2022-12-20T18:43:22.274Z,99903.71
2022-12-20T18:48:25.782Z,99903.45
2022-12-20T18:53:32.682Z,99899.55
2022-12-20T18:58:36.639Z,99902.46
2022-12-20T19:03:40.289Z,99905.20
2022-12-20T19:08:43.839Z,99897.27
2022-12-20T19:13:48.070Z,99888.08
2022-12-20T19:18:52.945Z,99874.29
2022-12-20T19:23:59.729Z,99864.39
2022-12-20T19:29:04.666Z,99861.08
2022-12-20T19:34:12.265Z,99861.36
2022-12-20T19:39:23.302Z,99856.04
2022-12-20T19:44:27.006Z,99847.83
2022-12-20T19:49:30.802Z,99841.42
2022-12-20T19:54:35.803Z,99841.54
2022-12-20T19:59:39.879Z,99847.45
2022-12-20T20:04:43.708Z,99840.79
2022-12-20T20:09:47.220Z,99833.06
2022-12-20T20:14:53.004Z,99841.70
2022-12-20T20:19:56.605Z,99846.30
2022-12-20T20:25:00.559Z,99843.16
2022-12-20T20:30:08.688Z,99845.73
2022-12-20T20:35:12.275Z,99847.73
2022-12-20T20:40:15.993Z,99841.67
2022-12-20T20:45:21.766Z,99838.80
2022-12-20T20:50:26.537Z,99840.13
2022-12-20T20:55:31.116Z,99840.86
2022-12-20T21:00:35.201Z,99848.41
2022-12-20T21:11:07.774Z,99830.42
2022-12-20T21:16:14.529Z,99816.63
2022-12-20T21:21:18.536Z,99807.84
2022-12-20T21:26:23.808Z,99814.52
2022-12-20T21:31:28.220Z,99808.34
2022-12-20T21:36:32.141Z,99815.91
2022-12-20T21:41:35.659Z,99813.07
2022-12-20T21:46:39.379Z,99815.86
2022-12-20T21:51:43.007Z,99814.94
2022-12-20T21:56:46.511Z,99807.69
2022-12-20T22:01:50.324Z,99807.57
2022-12-20T22:06:54.064Z,99798.95
2022-12-20T22:11:57.674Z,99795.80
2022-12-20T22:17:01.326Z,99794.55
2022-12-20T22:22:04.914Z,99794.98
2022-12-20T22:27:11.557Z,99794.67
2022-12-20T22:32:15.413Z,99774.70
2022-12-20T22:37:19.038Z,99771.95
2022-12-20T22:42:22.566Z,99782.73
2022-12-20T22:47:26.170Z,99767.18
2022-12-20T22:52:29.696Z,99751.13
2022-12-20T22:57:35.551Z,99733.98
2022-12-20T23:02:41.922Z,99722.41
2022-12-20T23:07:46.176Z,99721.27
2022-12-20T23:13:08.225Z,99722.77
2022-12-20T23:18:11.950Z,99715.92
2022-12-20T23:23:15.560Z,99721.15
2022-12-20T23:28:19.182Z,99710.05
2022-12-20T23:33:23.010Z,99690.22
2022-12-20T23:38:26.622Z,99677.13
2022-12-20T23:43:31.267Z,99655.52
2022-12-20T23:48:35.087Z,99647.46
2022-12-20T23:53:38.987Z,99645.20
2022-12-20T23:58:44.960Z,99659.95
